Current Mesonet Data Display

Graphs and maps are handy to obtain an immediate visual picture of what a weather variable has done over time and space. Sometimes a meteorologist needs the actual numbers and those can be displayed in a table. One dimension (across) of the table shows the weather parameters, the other (up and down) shows the different weather stations of the mesonet. This way a meteorologist can make easy comparisons between different parameters and between different locations. The table below displays the current conditions at all of the USA Mesonet stations (A more detailed display is available at the CHILI website)


Station Observation Time Temperature Dew Point Pressure Wind Speed Wind Direction
Agricola2022-11-27 07:20:31 49.80°F 49.33°F 29.93" 0.88 mph 257.77°
Andalusia2022-11-27 07:21:25 55.35°F 49.78°F 29.94" 8.11 mph 243.93°
Ashford North2022-11-27 07:20:05 62.14°F 54.58°F 29.93" 8.70 mph 319.33°
Atmore2022-11-27 07:20:11 54.98°F 49.43°F 29.97" 3.87 mph 248.68°
Bay Minette FS2022-11-27 07:19:55 54.45°F 49.27°F 29.96" 4.75 mph 278.23°
Bayou La Batre2022-11-27 07:20:03 58.03°F 50.87°F 29.99" 8.48 mph 0.98°
Castleberry2022-11-27 07:21:32 55.31°F 49.29°F 29.94" 2.70 mph 241.25°
Dixie2022-11-27 07:20:23 54.92°F 51.64°F 29.87" 3.14 mph 182.57°
Elberta2022-11-27 07:20:33 56.56°F 49.90°F 29.95" 2.05 mph 232.44°
Fairhope2022-11-27 07:20:09 57.30°F 48.84°F 29.94" 11.25 mph 239.42°
Florala2022-11-27 07:20:13 57.35°F 51.11°F 29.96" 6.50 mph 211.57°
Foley2022-11-27 07:20:18 56.86°F 50.77°F 29.96" 4.75 mph 250.71°
Gasque2022-11-27 07:20:28 57.94°F 48.16°F 29.96" 0.00 mph 73.15°
Geneva2022-11-27 07:21:09 59.38°F 52.12°F 29.96" 10.74 mph 269.81°
Grand Bay2022-11-27 07:20:08 54.97°F 50.03°F 29.94" 2.63 mph 220.85°
Jay2022-11-27 07:20:31 55.25°F 48.86°F 29.95" 6.94 mph 242.91°
Kinston2022-11-27 07:20:49 57.86°F 50.94°F 29.92" 8.77 mph 297.18°
Leakesville2022-11-27 07:21:10 52.21°F 46.99°F 29.93" 9.21 mph 236.39°
Loxley2022-11-27 07:20:52 55.73°F 50.26°F 29.96" 9.86 mph 277.75°
Mobile (Dog River)2022-11-27 07:20:16 56.32°F 49.00°F 29.99" 0.00 mph 355.01°
Mobile (USA Campus West)2022-11-27 07:21:01 54.44°F 48.06°F 29.99" 4.82 mph 224.73°
Mount Vernon2022-11-27 07:21:44 50.48°F 49.23°F 29.96" 0.00 mph 188.25°
Pascagoula2022-11-27 07:20:51 58.18°F 49.18°F 29.95" 4.17 mph 259.65°
Poarch Creek2022-11-27 07:20:24 54.15°F 48.37°F 29.94" 5.41 mph 140.70°
Robertsdale2022-11-27 07:20:30 57.76°F 51.09°F 29.94" 1.75 mph 280.59°
Saraland2022-11-27 07:20:09 52.68°F 49.77°F 29.95" 3.80 mph 228.65°